Time;durP1;ratioP1;P1;durP2;ratioP2;P2;SDS_P1;SDS_P2;PMS_P1;PMS_P2;Temp;Humidity;BMP_temperature;BMP_pressure;BME280_temperature;BME280_humidity;BME280_pressure;Samples;Min_cycle;Max_cycle;Signal;HPM_P1;HPM_P2
2024/01/22 00:00:36;;;;;;;29.23;11.15;;;-1.40;99.90;;;;;;5005441;28;20105;-73
2024/01/22 00:03:02;;;;;;;43.45;16.35;;;-1.30;99.90;;;;;;5007764;28;20038;-72
2024/01/22 00:05:28;;;;;;;42.80;15.57;;;-1.30;99.90;;;;;;5007526;28;20806;-73
2024/01/22 00:07:53;;;;;;;40.10;16.25;;;-1.40;99.90;;;;;;5005660;28;20034;-72
2024/01/22 00:10:19;;;;;;;39.83;16.48;;;-1.50;99.90;;;;;;4999313;28;20040;-72
2024/01/22 00:12:45;;;;;;;47.30;17.42;;;-1.60;99.90;;;;;;5011016;28;20030;-73
2024/01/22 00:15:10;;;;;;;50.25;17.98;;;-1.60;99.90;;;;;;4997315;28;20031;-73
2024/01/22 00:17:36;;;;;;;42.85;17.75;;;-1.60;99.90;;;;;;4995608;28;20041;-73
2024/01/22 00:20:02;;;;;;;43.90;17.25;;;-1.60;99.90;;;;;;5002320;28;20052;-74
2024/01/22 00:22:28;;;;;;;27.35;11.95;;;-1.70;99.90;;;;;;4999097;28;20038;-73
2024/01/22 00:24:54;;;;;;;43.15;16.42;;;-1.60;99.90;;;;;;5010863;28;20040;-73
2024/01/22 00:27:19;;;;;;;36.20;15.23;;;-1.60;99.90;;;;;;5010002;28;20026;-73
2024/01/22 00:29:45;;;;;;;46.13;18.63;;;-1.60;99.90;;;;;;4990701;28;20054;-72
2024/01/22 00:32:11;;;;;;;37.58;15.88;;;-1.60;99.90;;;;;;4990606;28;20034;-73
2024/01/22 00:34:37;;;;;;;39.67;16.85;;;-1.70;99.90;;;;;;5000478;28;20033;-72
2024/01/22 00:37:03;;;;;;;40.13;16.25;;;-1.70;99.90;;;;;;4992615;28;20037;-73
2024/01/22 00:39:29;;;;;;;40.17;15.75;;;-1.80;99.90;;;;;;5004882;28;20479;-73
2024/01/22 00:41:56;;;;;;;41.55;16.65;;;-1.80;99.90;;;;;;4999303;28;20026;-73
2024/01/22 00:44:22;;;;;;;38.30;15.02;;;-1.90;99.90;;;;;;5009235;28;20063;-72
2024/01/22 00:46:48;;;;;;;36.22;15.32;;;-1.80;99.90;;;;;;5010079;28;20427;-72
2024/01/22 00:49:14;;;;;;;41.58;14.82;;;-1.90;99.90;;;;;;4998836;28;20042;-72
2024/01/22 00:51:39;;;;;;;35.67;15.65;;;-1.80;99.90;;;;;;4997963;28;20038;-72
2024/01/22 00:54:05;;;;;;;35.60;14.63;;;-1.80;99.90;;;;;;5003861;28;20022;-72
2024/01/22 00:56:31;;;;;;;37.38;16.38;;;-1.90;99.90;;;;;;5009626;28;20022;-72
2024/01/22 00:58:56;;;;;;;36.67;14.07;;;-1.90;99.90;;;;;;5009957;28;20108;-72
2024/01/22 01:01:22;;;;;;;34.75;13.68;;;-1.90;99.90;;;;;;5004656;28;20133;-72
2024/01/22 01:03:48;;;;;;;35.90;14.40;;;-1.90;99.90;;;;;;4998323;28;20037;-72
2024/01/22 01:06:14;;;;;;;36.83;13.07;;;-1.80;99.90;;;;;;5000934;28;20030;-72
2024/01/22 01:08:40;;;;;;;32.92;13.82;;;-1.80;99.90;;;;;;5004303;28;20052;-72
2024/01/22 01:11:05;;;;;;;31.50;13.07;;;-1.70;99.90;;;;;;5001163;28;20030;-72
2024/01/22 01:13:31;;;;;;;14.77;5.93;;;-1.80;99.90;;;;;;4989676;28;20035;-72
2024/01/22 01:15:57;;;;;;;33.40;11.63;;;-1.70;99.90;;;;;;4990356;28;20110;-72
2024/01/22 01:18:23;;;;;;;31.23;12.93;;;-1.60;99.90;;;;;;5006208;28;20041;-72
2024/01/22 01:20:49;;;;;;;32.40;12.88;;;-1.60;99.90;;;;;;4999857;28;20035;-72
2024/01/22 01:23:14;;;;;;;29.20;11.63;;;-1.70;99.90;;;;;;4991229;28;20026;-72
2024/01/22 01:25:40;;;;;;;32.67;12.57;;;-1.80;99.90;;;;;;4989701;28;20033;-73
2024/01/22 01:28:06;;;;;;;38.92;15.32;;;-1.80;99.90;;;;;;4993166;28;20029;-72
2024/01/22 01:30:31;;;;;;;35.17;14.10;;;-1.90;99.90;;;;;;4990670;28;20040;-72
2024/01/22 01:32:57;;;;;;;38.00;15.10;;;-2.00;99.90;;;;;;5016297;28;20073;-73
2024/01/22 01:35:22;;;;;;;37.97;15.63;;;-2.20;99.90;;;;;;4989396;28;20097;-72
2024/01/22 01:37:48;;;;;;;37.20;14.13;;;-2.20;99.90;;;;;;4988719;28;20034;-74
2024/01/22 01:40:14;;;;;;;34.03;13.38;;;-2.30;99.90;;;;;;5003379;28;20044;-72
2024/01/22 01:42:43;;;;;;;25.85;10.35;;;-2.30;99.90;;;;;;5007404;28;20049;-72
2024/01/22 01:45:15;;;;;;;30.98;12.27;;;-2.20;99.90;;;;;;4995395;28;20069;-73
2024/01/22 01:47:47;;;;;;;33.00;11.63;;;-2.10;99.90;;;;;;4995903;28;20034;-72
2024/01/22 01:50:14;;;;;;;31.48;13.18;;;-2.10;99.90;;;;;;4996042;28;20375;-73
2024/01/22 01:52:41;;;;;;;31.88;12.55;;;-2.10;99.90;;;;;;5006951;28;20037;-72
2024/01/22 01:55:07;;;;;;;38.13;14.95;;;-2.10;99.90;;;;;;5007283;28;20026;-73
2024/01/22 01:57:41;;;;;;;36.63;14.52;;;-2.10;99.90;;;;;;5008021;28;20037;-72
2024/01/22 02:00:09;;;;;;;32.63;13.10;;;-2.10;99.90;;;;;;4992343;28;20037;-72
2024/01/22 02:02:38;;;;;;;36.00;14.15;;;-2.20;99.90;;;;;;4992083;28;20041;-73
2024/01/22 02:05:05;;;;;;;36.92;14.38;;;-2.40;99.90;;;;;;5008905;28;20030;-72
2024/01/22 02:07:31;;;;;;;39.75;13.55;;;-2.50;99.90;;;;;;5001084;28;20061;-73
2024/01/22 02:09:57;;;;;;;33.60;12.65;;;-2.50;99.90;;;;;;5000914;28;20030;-72
2024/01/22 02:12:23;;;;;;;38.67;14.13;;;-2.50;99.90;;;;;;5006409;28;20425;-72
2024/01/22 02:14:49;;;;;;;37.38;13.23;;;-2.50;99.90;;;;;;5008150;28;20061;-73
2024/01/22 02:17:16;;;;;;;32.22;13.60;;;-2.50;99.90;;;;;;5008469;28;20455;-72
2024/01/22 02:19:42;;;;;;;32.83;11.95;;;-2.40;99.90;;;;;;5006476;28;20462;-72
2024/01/22 02:22:08;;;;;;;30.20;12.98;;;-2.30;99.90;;;;;;5008263;28;20038;-72
2024/01/22 02:24:33;;;;;;;31.67;12.40;;;-2.20;99.90;;;;;;5007587;28;20118;-72
2024/01/22 02:26:59;;;;;;;34.63;13.23;;;-2.20;99.90;;;;;;5006581;28;20076;-73
2024/01/22 02:29:25;;;;;;;30.10;13.05;;;-2.30;99.90;;;;;;5007741;28;20160;-71
2024/01/22 02:31:52;;;;;;;31.80;11.85;;;-2.40;99.90;;;;;;5001976;28;20027;-72
2024/01/22 02:34:19;;;;;;;25.38;11.07;;;-2.40;99.90;;;;;;4997622;28;20072;-72
2024/01/22 02:36:45;;;;;;;29.55;12.43;;;-2.40;99.90;;;;;;5006998;28;20084;-72
2024/01/22 02:39:12;;;;;;;29.30;11.55;;;-2.40;99.90;;;;;;4999806;28;20438;-72
2024/01/22 02:41:38;;;;;;;40.17;16.58;;;-2.40;99.90;;;;;;5005237;28;20095;-72
2024/01/22 02:44:04;;;;;;;38.83;14.35;;;-2.40;99.90;;;;;;5002489;28;20057;-72
2024/01/22 02:46:29;;;;;;;35.13;13.55;;;-2.40;99.90;;;;;;5003537;28;20049;-73
2024/01/22 02:48:55;;;;;;;30.77;12.52;;;-2.40;99.90;;;;;;5006910;28;20026;-73
2024/01/22 02:51:21;;;;;;;30.90;13.45;;;-2.50;99.90;;;;;;5002567;28;20076;-72
2024/01/22 02:53:48;;;;;;;24.55;10.25;;;-2.60;99.90;;;;;;4996228;28;20106;-72
2024/01/22 02:56:21;;;;;;;28.17;10.82;;;-2.60;99.90;;;;;;5008014;28;20037;-73
2024/01/22 02:58:47;;;;;;;30.45;12.30;;;-2.50;99.90;;;;;;5004603;28;20109;-73
2024/01/22 03:01:12;;;;;;;34.75;13.38;;;-2.50;99.90;;;;;;4992715;28;20042;-72
2024/01/22 03:03:40;;;;;;;27.00;10.75;;;-2.50;99.90;;;;;;4991955;28;20030;-72
2024/01/22 03:06:06;;;;;;;26.02;11.38;;;-2.50;99.90;;;;;;4992768;28;20069;-73
2024/01/22 03:08:32;;;;;;;21.65;9.60;;;-2.50;99.90;;;;;;4992254;28;20499;-73
2024/01/22 03:10:58;;;;;;;22.83;8.98;;;-2.60;99.90;;;;;;5000847;28;20208;-72
2024/01/22 03:13:23;;;;;;;21.35;9.60;;;-2.60;99.90;;;;;;4996163;28;20030;-72
2024/01/22 03:15:49;;;;;;;28.95;10.45;;;-2.60;99.90;;;;;;5011897;28;20394;-72
2024/01/22 03:18:14;;;;;;;23.27;8.45;;;-2.60;99.90;;;;;;5004340;28;20023;-72
2024/01/22 03:20:40;;;;;;;24.90;8.98;;;-2.70;99.90;;;;;;5004335;28;20509;-72
2024/01/22 03:23:05;;;;;;;22.08;8.45;;;-2.70;99.90;;;;;;5001521;28;20038;-71
2024/01/22 03:25:31;;;;;;;22.73;8.80;;;-2.70;99.90;;;;;;5010607;28;20517;-72
2024/01/22 03:27:57;;;;;;;20.00;8.70;;;-2.60;99.90;;;;;;5012102;28;20520;-72
2024/01/22 03:30:22;;;;;;;25.52;8.95;;;-2.60;99.90;;;;;;5026496;28;20026;-73
2024/01/22 03:32:48;;;;;;;20.45;8.25;;;-2.50;99.90;;;;;;5011461;28;20041;-72
2024/01/22 03:35:14;;;;;;;18.95;8.13;;;-2.50;99.90;;;;;;5010221;28;20042;-72
2024/01/22 03:37:42;;;;;;;22.52;7.80;;;-2.50;99.90;;;;;;5011246;28;20108;-73
2024/01/22 03:40:09;;;;;;;24.17;9.63;;;-2.50;99.90;;;;;;5025684;28;20030;-73
2024/01/22 03:42:36;;;;;;;16.63;6.53;;;-2.50;99.90;;;;;;5010661;28;20120;-72
2024/01/22 03:45:02;;;;;;;15.10;6.25;;;-2.50;99.90;;;;;;5008421;28;20617;-72
2024/01/22 03:47:28;;;;;;;26.80;10.75;;;-2.40;99.90;;;;;;5010006;28;20034;-73
2024/01/22 03:49:53;;;;;;;26.33;11.57;;;-2.50;99.90;;;;;;5009188;28;20485;-73
2024/01/22 03:52:19;;;;;;;27.67;10.80;;;-2.80;99.90;;;;;;5011508;28;20092;-71
2024/01/22 03:54:44;;;;;;;26.15;10.35;;;-3.00;99.90;;;;;;5000204;28;20660;-74
2024/01/22 03:57:10;;;;;;;28.35;11.48;;;-3.00;99.90;;;;;;5009758;28;20033;-73
2024/01/22 03:59:37;;;;;;;27.88;11.27;;;-3.00;99.90;;;;;;5010418;28;20018;-73
2024/01/22 04:02:03;;;;;;;26.25;10.13;;;-3.00;99.90;;;;;;5006563;28;20107;-73
2024/01/22 04:04:29;;;;;;;31.02;11.98;;;-3.00;99.90;;;;;;5009427;28;20727;-73
2024/01/22 04:06:54;;;;;;;30.63;11.60;;;-3.00;99.90;;;;;;5009560;28;20030;-74
2024/01/22 04:09:20;;;;;;;28.85;10.10;;;-2.90;99.90;;;;;;5026249;28;20030;-73
2024/01/22 04:11:45;;;;;;;28.33;10.48;;;-2.80;99.90;;;;;;5010438;28;20025;-73
2024/01/22 04:14:11;;;;;;;26.20;11.25;;;-2.70;99.90;;;;;;5021045;28;20049;-73
2024/01/22 04:16:37;;;;;;;28.65;11.13;;;-2.70;99.90;;;;;;4991044;28;20681;-73
2024/01/22 04:19:02;;;;;;;27.70;10.38;;;-2.60;99.90;;;;;;5000923;28;20044;-73
2024/01/22 04:21:29;;;;;;;25.42;11.00;;;-2.60;99.90;;;;;;5010373;28;20525;-73
2024/01/22 04:23:54;;;;;;;23.13;10.05;;;-2.50;99.90;;;;;;5010053;28;20433;-72
2024/01/22 04:26:20;;;;;;;22.88;9.10;;;-2.40;99.90;;;;;;4992715;28;20041;-73
2024/01/22 04:28:45;;;;;;;22.75;9.27;;;-2.30;99.90;;;;;;4995866;28;20628;-74
2024/01/22 04:31:12;;;;;;;23.17;9.18;;;-2.20;99.90;;;;;;5010173;28;20034;-74
2024/01/22 04:33:38;;;;;;;20.40;7.53;;;-2.10;99.90;;;;;;5010151;28;20026;-74
2024/01/22 04:36:04;;;;;;;17.17;6.68;;;-2.00;99.90;;;;;;4992314;28;20034;-74
2024/01/22 04:38:30;;;;;;;24.88;8.20;;;-2.00;99.90;;;;;;4991575;28;20168;-73
2024/01/22 04:40:56;;;;;;;22.45;8.85;;;-1.90;99.90;;;;;;4989839;28;20117;-73
2024/01/22 04:43:22;;;;;;;24.48;9.48;;;-2.00;99.90;;;;;;5004065;28;20022;-73
2024/01/22 04:45:48;;;;;;;21.40;8.38;;;-2.10;99.90;;;;;;5001197;28;20031;-74
2024/01/22 04:48:14;;;;;;;24.40;9.63;;;-2.10;99.90;;;;;;4991700;28;20030;-73
2024/01/22 04:50:39;;;;;;;22.33;9.35;;;-2.00;99.90;;;;;;5003468;28;20038;-73
2024/01/22 04:53:05;;;;;;;16.00;6.30;;;-2.10;99.90;;;;;;4990734;28;20034;-73
2024/01/22 04:55:30;;;;;;;19.92;7.93;;;-2.10;99.90;;;;;;4990041;28;20035;-71
2024/01/22 04:57:56;;;;;;;22.67;9.75;;;-1.90;99.90;;;;;;4989469;28;20026;-74
2024/01/22 05:00:22;;;;;;;25.25;10.23;;;-1.90;99.90;;;;;;4993124;28;20038;-74
2024/01/22 05:02:47;;;;;;;24.42;9.63;;;-1.90;99.90;;;;;;4992349;28;20616;-73
2024/01/22 05:05:14;;;;;;;28.63;10.05;;;-1.90;99.90;;;;;;5008687;28;20359;-73
2024/01/22 05:07:39;;;;;;;28.33;10.20;;;-1.90;99.90;;;;;;5009744;28;20046;-73
2024/01/22 05:10:09;;;;;;;22.92;8.95;;;-1.90;99.90;;;;;;5006184;28;20466;-73
2024/01/22 05:12:38;;;;;;;25.98;9.95;;;-2.00;99.90;;;;;;5006543;28;20187;-73
2024/01/22 05:15:04;;;;;;;27.23;9.52;;;-2.00;99.90;;;;;;5008376;28;20038;-73
2024/01/22 05:17:29;;;;;;;24.50;9.40;;;-2.00;99.90;;;;;;5007484;28;20045;-73
2024/01/22 05:19:55;;;;;;;23.58;9.75;;;-2.00;99.90;;;;;;5004229;28;20026;-73
2024/01/22 05:22:21;;;;;;;22.83;9.50;;;-2.00;99.90;;;;;;5002209;28;20037;-73
2024/01/22 05:24:47;;;;;;;24.90;10.15;;;-2.00;99.90;;;;;;5004950;28;20033;-73
2024/01/22 05:27:13;;;;;;;26.75;10.25;;;-2.00;99.90;;;;;;4999870;28;20030;-73
2024/01/22 05:29:40;;;;;;;29.88;10.40;;;-2.00;99.90;;;;;;5000708;28;20026;-73
2024/01/22 05:32:05;;;;;;;30.17;11.35;;;-2.00;99.90;;;;;;5007125;28;20026;-73
2024/01/22 05:34:31;;;;;;;26.08;10.57;;;-1.90;99.90;;;;;;5008012;28;20371;-73
2024/01/22 05:36:57;;;;;;;26.00;10.20;;;-1.90;99.90;;;;;;5002233;28;20030;-73
2024/01/22 05:39:22;;;;;;;25.42;10.23;;;-1.80;99.90;;;;;;5007880;28;20037;-73
2024/01/22 05:41:48;;;;;;;26.63;10.35;;;-1.70;99.90;;;;;;4998357;28;20057;-73
2024/01/22 05:44:14;;;;;;;27.20;11.35;;;-1.60;99.90;;;;;;4998675;28;20046;-73
2024/01/22 05:46:39;;;;;;;24.92;10.52;;;-1.60;99.90;;;;;;5002214;28;20458;-73
2024/01/22 05:49:05;;;;;;;22.65;9.15;;;-1.50;99.90;;;;;;5003258;28;20026;-73
2024/01/22 05:51:31;;;;;;;26.48;9.30;;;-1.40;99.90;;;;;;5000604;28;20030;-73
2024/01/22 05:53:59;;;;;;;22.05;8.70;;;-1.30;99.90;;;;;;5004580;28;20026;-73
2024/01/22 05:56:26;;;;;;;19.48;8.40;;;-1.20;99.90;;;;;;5001407;28;20061;-73
2024/01/22 05:58:56;;;;;;;24.40;9.98;;;-1.10;99.90;;;;;;5006409;28;20026;-73
2024/01/22 06:01:27;;;;;;;17.73;7.35;;;-1.10;99.90;;;;;;5000944;28;20074;-73
2024/01/22 06:03:53;;;;;;;25.17;8.75;;;-1.30;99.90;;;;;;4998063;28;20022;-73
2024/01/22 06:06:19;;;;;;;26.20;9.88;;;-1.20;99.90;;;;;;4994989;28;20064;-73
2024/01/22 06:08:46;;;;;;;28.52;11.23;;;-1.20;99.90;;;;;;5003161;28;20466;-73
2024/01/22 06:11:13;;;;;;;24.13;10.43;;;-1.20;99.90;;;;;;4999682;28;20058;-73
2024/01/22 06:13:39;;;;;;;24.17;10.07;;;-1.30;99.90;;;;;;4998575;28;20042;-73
2024/01/22 06:16:15;;;;;;;24.83;10.85;;;-1.30;99.90;;;;;;5004624;28;20030;-73
2024/01/22 06:18:45;;;;;;;23.38;10.18;;;-1.40;99.90;;;;;;5003948;28;20026;-73
2024/01/22 06:21:11;;;;;;;23.95;10.43;;;-1.30;99.90;;;;;;5000167;28;20030;-73
2024/01/22 06:23:37;;;;;;;26.67;10.98;;;-1.30;99.90;;;;;;5003045;28;20027;-73
2024/01/22 06:26:03;;;;;;;33.83;12.00;;;-1.30;99.90;;;;;;5000076;28;20121;-73
2024/01/22 06:28:30;;;;;;;27.10;10.65;;;-1.20;99.90;;;;;;5000054;28;20376;-73
2024/01/22 06:30:57;;;;;;;27.70;11.35;;;-1.20;99.90;;;;;;4998728;28;20037;-74
2024/01/22 06:33:23;;;;;;;27.10;10.00;;;-1.10;99.90;;;;;;4997080;28;20121;-73
2024/01/22 06:35:49;;;;;;;24.98;11.07;;;-1.10;99.90;;;;;;4998378;28;20114;-73
2024/01/22 06:38:19;;;;;;;27.55;10.75;;;-1.00;99.90;;;;;;4998115;28;20112;-73
2024/01/22 06:40:45;;;;;;;24.57;11.63;;;-1.00;99.90;;;;;;4999188;28;20038;-74
2024/01/22 06:43:11;;;;;;;27.30;10.98;;;-1.00;99.90;;;;;;4996853;28;20069;-74
2024/01/22 06:45:37;;;;;;;29.95;12.10;;;-1.00;99.90;;;;;;5000560;28;20478;-74
2024/01/22 06:48:03;;;;;;;32.10;13.50;;;-1.00;99.90;;;;;;5005184;28;20033;-74
2024/01/22 06:50:29;;;;;;;29.90;13.93;;;-1.00;99.90;;;;;;5002949;28;20034;-73
2024/01/22 06:52:54;;;;;;;31.95;14.68;;;-1.00;99.90;;;;;;4998594;28;20637;-74
2024/01/22 06:55:21;;;;;;;28.20;12.70;;;-1.00;99.90;;;;;;5002106;28;20030;-73
2024/01/22 06:57:47;;;;;;;29.58;12.52;;;-1.00;99.90;;;;;;5002867;28;20026;-74
2024/01/22 07:00:15;;;;;;;28.23;11.75;;;-1.00;99.90;;;;;;5006343;28;20112;-74
2024/01/22 07:02:43;;;;;;;27.75;11.93;;;-1.00;99.90;;;;;;4994996;28;20036;-74
2024/01/22 07:05:10;;;;;;;21.95;8.13;;;-0.90;99.90;;;;;;5000738;28;20040;-74
2024/01/22 07:07:37;;;;;;;22.45;8.60;;;-0.30;99.90;;;;;;5003490;28;20038;-74
2024/01/22 07:10:05;;;;;;;15.77;6.57;;;0.20;99.90;;;;;;5005560;28;20030;-74
2024/01/22 07:12:31;;;;;;;19.65;7.15;;;0.60;99.90;;;;;;5007200;28;20034;-74
2024/01/22 07:14:57;;;;;;;14.20;5.70;;;0.90;99.90;;;;;;4997776;28;20030;-74
2024/01/22 07:17:22;;;;;;;15.23;5.85;;;1.20;99.90;;;;;;4995760;28;20042;-73
2024/01/22 07:19:48;;;;;;;10.02;4.80;;;1.60;99.90;;;;;;4994518;28;20057;-73
2024/01/22 07:22:13;;;;;;;12.38;4.57;;;2.10;99.90;;;;;;4998552;28;20042;-73
2024/01/22 07:24:40;;;;;;;9.98;3.85;;;2.50;99.90;;;;;;5000299;28;20537;-73
2024/01/22 07:27:06;;;;;;;9.05;3.78;;;2.90;99.90;;;;;;4997917;28;20023;-73
2024/01/22 07:29:31;;;;;;;8.73;3.15;;;3.20;99.90;;;;;;5002256;28;20030;-74
2024/01/22 07:31:57;;;;;;;5.85;2.40;;;3.60;99.90;;;;;;4995291;28;20486;-74
2024/01/22 07:34:23;;;;;;;7.68;2.80;;;3.90;99.90;;;;;;5002052;28;20112;-73
2024/01/22 07:36:50;;;;;;;4.75;2.38;;;4.20;99.90;;;;;;5017312;28;20112;-73
2024/01/22 07:39:15;;;;;;;6.40;2.40;;;4.40;99.90;;;;;;5008999;28;20022;-74
2024/01/22 07:41:41;;;;;;;7.20;2.78;;;4.60;99.90;;;;;;5011025;28;20076;-73
2024/01/22 07:44:07;;;;;;;7.35;2.90;;;4.80;99.90;;;;;;5010830;28;20101;-74
2024/01/22 07:46:33;;;;;;;9.18;3.08;;;4.90;99.90;;;;;;5010892;28;20386;-73
2024/01/22 07:48:58;;;;;;;7.45;2.60;;;5.00;99.90;;;;;;5011286;28;20022;-74
2024/01/22 07:51:24;;;;;;;6.30;2.25;;;5.00;99.90;;;;;;5011851;28;20038;-74
2024/01/22 07:53:50;;;;;;;5.18;2.00;;;5.10;99.90;;;;;;5006389;28;20168;-73
2024/01/22 07:56:16;;;;;;;5.88;1.88;;;5.30;99.90;;;;;;4992124;28;20026;-74
2024/01/22 07:58:42;;;;;;;4.55;2.20;;;5.60;99.90;;;;;;4991402;28;20034;-73
2024/01/22 08:01:08;;;;;;;6.18;2.50;;;5.60;99.90;;;;;;4991807;28;20038;-74
2024/01/22 08:03:34;;;;;;;7.05;2.10;;;5.60;99.90;;;;;;4992350;28;20026;-73
2024/01/22 08:06:00;;;;;;;6.00;1.83;;;5.40;99.90;;;;;;5011127;28;20038;-74
2024/01/22 08:08:27;;;;;;;3.78;1.70;;;5.40;99.90;;;;;;5006639;28;20063;-72
2024/01/22 08:10:52;;;;;;;4.60;2.10;;;5.70;99.90;;;;;;5001102;28;20080;-72
2024/01/22 08:13:18;;;;;;;5.13;2.72;;;5.50;99.90;;;;;;5000799;28;20037;-75
2024/01/22 08:15:44;;;;;;;6.20;2.80;;;5.30;99.90;;;;;;5008392;28;20045;-75
2024/01/22 08:18:10;;;;;;;5.95;2.15;;;4.90;99.90;;;;;;5011585;28;20493;-76
2024/01/22 08:20:35;;;;;;;5.53;1.92;;;4.90;99.90;;;;;;5011270;28;20459;-75
2024/01/22 08:23:01;;;;;;;6.22;2.67;;;5.20;99.90;;;;;;5006834;28;20044;-75
2024/01/22 08:25:28;;;;;;;7.32;2.28;;;5.30;99.90;;;;;;5010565;28;20030;-75
2024/01/22 08:27:58;;;;;;;5.25;2.05;;;5.50;99.90;;;;;;5005005;28;20792;-74
2024/01/22 08:30:24;;;;;;;3.78;2.08;;;5.70;99.90;;;;;;5002807;28;20038;-75
2024/01/22 08:32:51;;;;;;;4.90;2.40;;;5.60;99.90;;;;;;5010244;28;20096;-75
2024/01/22 08:35:18;;;;;;;7.40;2.97;;;5.30;99.90;;;;;;4998941;28;20022;-75
2024/01/22 08:37:52;;;;;;;4.13;2.25;;;5.20;99.90;;;;;;5007101;28;20038;-74
2024/01/22 08:40:21;;;;;;;4.20;1.80;;;5.30;99.90;;;;;;5011138;28;20113;-75
2024/01/22 08:42:57;;;;;;;6.38;2.17;;;5.60;99.90;;;;;;5005357;28;20488;-75
2024/01/22 08:45:23;;;;;;;7.05;2.22;;;5.80;99.90;;;;;;5000041;28;20116;-76
2024/01/22 08:47:49;;;;;;;6.72;2.13;;;5.80;99.90;;;;;;4999691;28;20096;-74
2024/01/22 08:50:21;;;;;;;6.60;2.80;;;5.80;99.90;;;;;;5006197;28;20030;-75
2024/01/22 08:52:47;;;;;;;9.35;3.13;;;5.70;99.90;;;;;;4989503;28;20022;-75
2024/01/22 08:55:14;;;;;;;7.75;3.00;;;5.60;99.90;;;;;;4991119;28;20026;-75
2024/01/22 08:57:41;;;;;;;7.88;2.75;;;5.60;99.90;;;;;;4990872;28;20364;-74
2024/01/22 09:00:10;;;;;;;5.65;2.25;;;5.70;99.90;;;;;;4996129;28;20022;-75
2024/01/22 09:02:43;;;;;;;9.07;2.57;;;5.80;99.90;;;;;;5010424;28;20493;-75
2024/01/22 09:05:09;;;;;;;3.90;1.20;;;6.00;99.90;;;;;;5008609;28;20149;-76
2024/01/22 09:07:36;;;;;;;4.47;1.20;;;6.50;99.90;;;;;;5009670;28;20101;-75
2024/01/22 09:10:06;;;;;;;6.03;1.35;;;6.90;99.90;;;;;;5008269;28;20022;-75
2024/01/22 09:12:36;;;;;;;5.55;1.50;;;7.20;99.90;;;;;;5010423;28;20064;-76
2024/01/22 09:15:04;;;;;;;3.60;1.42;;;7.30;99.90;;;;;;5009571;28;20069;-76
2024/01/22 09:17:30;;;;;;;4.13;1.23;;;7.50;99.90;;;;;;5004385;28;20181;-76
2024/01/22 09:19:56;;;;;;;2.35;0.95;;;7.60;99.90;;;;;;4989933;28;20027;-77
2024/01/22 09:22:23;;;;;;;1.90;0.98;;;7.70;99.90;;;;;;4990565;28;20125;-75
2024/01/22 09:24:49;;;;;;;2.92;1.20;;;7.80;99.90;;;;;;5004932;28;20450;-76
2024/01/22 09:27:15;;;;;;;2.75;1.10;;;7.90;99.90;;;;;;4991960;28;20033;-76
2024/01/22 09:29:41;;;;;;;2.95;1.10;;;7.90;99.90;;;;;;5009551;28;20495;-76
2024/01/22 09:32:08;;;;;;;2.63;1.40;;;8.00;99.90;;;;;;5009140;28;20116;-77
2024/01/22 09:34:34;;;;;;;2.80;1.23;;;8.00;99.90;;;;;;5009859;28;20030;-76
2024/01/22 09:36:59;;;;;;;2.78;1.00;;;8.20;99.90;;;;;;5007442;28;20092;-76
2024/01/22 09:39:25;;;;;;;1.77;1.08;;;8.30;99.90;;;;;;5009128;28;20116;-76
2024/01/22 09:41:51;;;;;;;3.53;1.30;;;8.50;99.90;;;;;;4990534;28;20049;-76
2024/01/22 09:44:17;;;;;;;5.40;1.33;;;8.40;99.90;;;;;;4989608;28;20059;-76
2024/01/22 09:46:45;;;;;;;4.00;1.38;;;8.40;99.90;;;;;;4990064;28;20165;-74
2024/01/22 09:49:11;;;;;;;3.78;1.30;;;8.40;99.90;;;;;;5005949;28;20034;-76
2024/01/22 09:51:42;;;;;;;4.13;1.38;;;8.40;99.90;;;;;;5009740;28;20037;-76
2024/01/22 09:54:11;;;;;;;3.03;1.17;;;8.30;99.90;;;;;;4993321;28;20030;-76
2024/01/22 09:56:38;;;;;;;2.17;1.30;;;8.40;99.90;;;;;;4989850;28;20026;-76
2024/01/22 09:59:20;;;;;;;4.40;1.23;;;8.40;99.90;;;;;;4991955;28;20879;-75
2024/01/22 10:01:48;;;;;;;3.80;1.30;;;8.30;99.90;;;;;;5004434;28;20042;-74
2024/01/22 10:04:14;;;;;;;2.65;1.30;;;8.30;99.90;;;;;;4989586;28;20033;-75
2024/01/22 10:06:40;;;;;;;5.07;1.60;;;8.20;99.90;;;;;;4990238;28;20035;-76
2024/01/22 10:09:06;;;;;;;3.63;1.70;;;8.20;99.90;;;;;;5002323;28;20128;-76
2024/01/22 10:11:32;;;;;;;2.80;1.58;;;8.20;99.90;;;;;;4993108;28;20144;-77
2024/01/22 10:13:58;;;;;;;2.85;1.30;;;8.20;99.90;;;;;;4988694;28;20067;-77
2024/01/22 10:16:30;;;;;;;10.45;4.50;;;8.20;99.90;;;;;;5009295;28;20439;-76
2024/01/22 10:18:59;;;;;;;12.48;5.80;;;8.00;99.90;;;;;;5008660;28;20562;-76
2024/01/22 10:21:24;;;;;;;14.32;6.18;;;7.70;99.90;;;;;;4997003;28;20118;-76
2024/01/22 10:24:01;;;;;;;8.32;3.72;;;7.60;99.90;;;;;;4991653;28;20444;-76
2024/01/22 10:26:30;;;;;;;13.32;5.53;;;7.60;99.90;;;;;;5009302;28;20041;-77
2024/01/22 10:29:11;;;;;;;9.27;3.58;;;7.60;99.90;;;;;;5008476;28;20458;-76
2024/01/22 10:31:56;;;;;;;50.60;15.90;;;7.50;99.90;;;;;;5009335;28;20557;-76
2024/01/22 10:34:28;;;;;;;10.20;3.92;;;7.30;99.90;;;;;;5002583;28;20090;-76
2024/01/22 10:37:07;;;;;;;7.28;2.92;;;7.10;99.90;;;;;;4987788;28;20110;-75
2024/01/22 10:39:35;;;;;;;22.07;8.37;;;7.00;99.90;;;;;;5005937;28;20395;-76
2024/01/22 10:42:07;;;;;;;28.65;11.15;;;6.90;99.90;;;;;;5006870;28;20685;-76
2024/01/22 10:44:35;;;;;;;3.90;2.20;;;6.80;99.90;;;;;;5003152;28;20506;-76
2024/01/22 10:47:03;;;;;;;13.32;5.90;;;6.70;99.90;;;;;;5007841;28;20030;-77
2024/01/22 10:49:30;;;;;;;5.45;2.67;;;6.60;99.90;;;;;;5008552;28;20478;-76
2024/01/22 10:52:02;;;;;;;5.82;2.03;;;6.60;99.90;;;;;;5001876;28;20026;-76
2024/01/22 10:54:31;;;;;;;9.95;4.43;;;6.50;99.90;;;;;;4995186;28;20467;-76
2024/01/22 10:57:05;;;;;;;9.93;3.97;;;6.50;99.90;;;;;;5005745;28;20022;-76
2024/01/22 10:59:38;;;;;;;6.22;2.60;;;6.60;99.90;;;;;;5008984;28;20030;-77
2024/01/22 11:02:25;;;;;;;36.35;13.60;;;6.60;99.90;;;;;;5008135;28;20046;-76
2024/01/22 11:05:00;;;;;;;5.30;2.45;;;6.70;99.90;;;;;;4998835;28;20479;-74
2024/01/22 11:07:32;;;;;;;17.08;8.25;;;6.70;99.90;;;;;;4989427;28;20026;-76
2024/01/22 11:10:00;;;;;;;8.68;4.72;;;6.70;99.90;;;;;;4988593;28;20467;-76
2024/01/22 11:12:33;;;;;;;15.20;6.25;;;6.70;99.90;;;;;;4989455;28;20030;-76
2024/01/22 11:14:59;;;;;;;7.32;3.13;;;6.50;99.90;;;;;;4989989;28;20038;-76
2024/01/22 11:17:25;;;;;;;16.73;8.93;;;6.50;99.90;;;;;;4993033;28;20035;-76
2024/01/22 11:20:11;;;;;;;20.33;10.52;;;6.50;99.90;;;;;;4991370;28;20574;-74
2024/01/22 11:22:37;;;;;;;22.65;11.73;;;6.40;99.90;;;;;;4992830;28;20105;-76
2024/01/22 11:25:09;;;;;;;21.02;10.68;;;6.40;99.90;;;;;;5000410;28;20113;-76
2024/01/22 11:27:43;;;;;;;55.67;23.40;;;6.10;99.90;;;;;;5012226;28;20026;-76
2024/01/22 11:30:23;;;;;;;38.40;14.90;;;6.10;99.90;;;;;;5011529;28;20030;-76
2024/01/22 11:32:49;;;;;;;33.05;14.63;;;6.20;99.90;;;;;;5012652;28;20123;-75
2024/01/22 11:35:37;;;;;;;84.28;33.85;;;6.20;99.90;;;;;;5001353;28;20069;-75
2024/01/22 11:38:04;;;;;;;43.03;19.70;;;6.20;99.90;;;;;;4991971;28;20037;-77
2024/01/22 11:40:55;;;;;;;20.42;8.60;;;6.10;99.90;;;;;;4998599;28;20064;-77
2024/01/22 11:43:21;;;;;;;;;;;6.10;99.90;;;;;;5027233;28;20042;-76
2024/01/22 11:45:56;;;;;;;9.07;4.80;;;6.00;99.90;;;;;;4999455;28;19914;-76
2024/01/22 11:48:23;;;;;;;9.45;4.13;;;6.10;99.90;;;;;;4992519;28;20026;-76
2024/01/22 11:50:57;;;;;;;7.53;3.50;;;6.10;99.90;;;;;;4992412;28;20027;-77
2024/01/22 11:53:23;;;;;;;9.75;4.85;;;6.10;99.90;;;;;;4992372;28;20521;-76
2024/01/22 11:56:02;;;;;;;16.58;8.27;;;6.20;99.90;;;;;;5003802;28;20029;-76
2024/01/22 11:58:28;;;;;;;8.77;5.00;;;6.20;99.90;;;;;;5011949;28;20034;-76
2024/01/22 12:00:54;;;;;;;17.65;8.60;;;6.20;99.90;;;;;;5011299;28;20449;-73
2024/01/22 12:03:28;;;;;;;15.43;6.55;;;6.20;99.90;;;;;;5010289;28;20033;-76
2024/01/22 12:06:01;;;;;;;13.30;6.70;;;6.30;99.90;;;;;;5010673;28;20068;-74
2024/01/22 12:08:28;;;;;;;11.88;6.00;;;6.30;99.90;;;;;;5011730;28;20073;-76
2024/01/22 12:11:03;;;;;;;13.80;7.00;;;6.30;99.90;;;;;;5010313;28;20025;-74
2024/01/22 12:13:29;;;;;;;26.45;15.75;;;6.30;99.90;;;;;;5008082;28;20045;-76
2024/01/22 12:15:56;;;;;;;19.25;10.75;;;6.30;99.90;;;;;;5009913;28;20033;-75
2024/01/22 12:18:23;;;;;;;30.25;16.75;;;6.30;99.90;;;;;;5011835;28;20072;-76
2024/01/22 12:20:49;;;;;;;31.38;16.15;;;6.30;99.90;;;;;;5011489;28;20068;-77
2024/01/22 12:23:31;;;;;;;23.42;13.13;;;6.20;99.90;;;;;;5010549;28;20046;-75
2024/01/22 12:25:57;;;;;;;23.65;11.68;;;6.30;99.90;;;;;;4997107;28;20113;-71
2024/01/22 12:28:23;;;;;;;23.15;11.98;;;6.30;99.90;;;;;;4992858;28;20117;-76
2024/01/22 12:31:02;;;;;;;16.52;8.57;;;6.40;99.90;;;;;;5011341;28;20046;-76
2024/01/22 12:33:29;;;;;;;12.18;5.95;;;6.60;99.90;;;;;;5009537;28;20677;-77
2024/01/22 12:36:12;;;;;;;17.00;6.85;;;6.60;99.90;;;;;;4991173;28;20030;-74
2024/01/22 12:39:07;;;;;;;11.20;5.47;;;6.80;99.90;;;;;;5007153;28;20034;-76
2024/01/22 12:41:33;;;;;;;14.18;5.72;;;7.00;99.90;;;;;;5005991;28;20042;-77